createdAt,value
2018-12-08T00:01:29.003Z,6.80
2018-12-08T00:03:57.155Z,6.70
2018-12-08T00:06:25.415Z,6.70
2018-12-08T00:08:53.573Z,6.70
2018-12-08T00:11:21.752Z,6.70
2018-12-08T00:13:50.015Z,6.70
2018-12-08T00:16:18.332Z,6.70
2018-12-08T00:18:46.495Z,6.70
2018-12-08T00:21:21.214Z,6.80
2018-12-08T00:23:49.377Z,6.80
2018-12-08T00:26:17.529Z,6.80
2018-12-08T00:28:45.760Z,6.80
2018-12-08T00:31:50.209Z,6.80
2018-12-08T00:34:18.371Z,6.80
2018-12-08T00:36:46.527Z,6.70
2018-12-08T00:39:14.810Z,6.70
2018-12-08T00:41:43.056Z,6.60
2018-12-08T00:44:11.280Z,6.60
2018-12-08T00:46:39.428Z,6.60
2018-12-08T00:49:07.611Z,6.60
2018-12-08T00:51:35.778Z,6.50
2018-12-08T00:54:07.550Z,6.50
2018-12-08T00:56:36.400Z,6.50
2018-12-08T00:59:04.788Z,6.50
2018-12-08T01:01:33.128Z,6.50
2018-12-08T01:04:01.445Z,6.50
2018-12-08T01:06:29.674Z,6.50
2018-12-08T01:08:57.829Z,6.50
2018-12-08T01:11:26.164Z,6.50
2018-12-08T01:13:54.356Z,6.50
2018-12-08T01:16:22.573Z,6.50
2018-12-08T01:18:50.808Z,6.50
2018-12-08T01:21:19.064Z,6.50
2018-12-08T01:23:47.308Z,6.40
2018-12-08T01:26:15.491Z,6.30
2018-12-08T01:28:43.693Z,6.20
2018-12-08T01:31:11.877Z,6.10
2018-12-08T01:33:40.048Z,6.10
2018-12-08T01:36:08.349Z,6.00
2018-12-08T01:38:36.515Z,6.00
2018-12-08T01:41:04.752Z,5.90
2018-12-08T01:43:32.901Z,5.80
2018-12-08T01:46:01.138Z,5.70
2018-12-08T01:48:29.315Z,5.70
2018-12-08T01:50:57.590Z,5.60
2018-12-08T01:53:25.803Z,5.60
2018-12-08T01:55:54.065Z,5.60
2018-12-08T01:58:22.271Z,5.60
2018-12-08T02:00:50.519Z,5.60
2018-12-08T02:03:18.800Z,5.70
2018-12-08T02:05:46.980Z,5.70
2018-12-08T02:08:15.175Z,5.70
2018-12-08T02:10:43.340Z,5.70
2018-12-08T02:13:11.659Z,5.80
2018-12-08T02:15:46.530Z,5.70
2018-12-08T02:18:14.704Z,5.70
2018-12-08T02:20:42.852Z,5.70
2018-12-08T02:23:11.012Z,5.70
2018-12-08T02:25:39.242Z,5.70
2018-12-08T02:28:07.417Z,5.70
2018-12-08T02:30:35.565Z,5.60
2018-12-08T02:33:03.817Z,5.60
2018-12-08T02:35:32.052Z,5.70
2018-12-08T02:38:00.287Z,5.70
2018-12-08T02:40:28.493Z,5.70
2018-12-08T02:42:56.606Z,5.70
2018-12-08T02:45:24.825Z,5.70
2018-12-08T02:47:52.973Z,5.80
2018-12-08T02:50:21.132Z,5.80
2018-12-08T02:52:49.344Z,5.90
2018-12-08T02:55:17.584Z,5.90
2018-12-08T02:57:45.769Z,5.90
2018-12-08T03:00:14.383Z,5.80
2018-12-08T03:02:42.543Z,5.80
2018-12-08T03:05:10.773Z,5.80
2018-12-08T03:07:39.200Z,5.80
2018-12-08T03:10:07.604Z,5.80
2018-12-08T03:12:35.783Z,5.80
2018-12-08T03:15:04.482Z,5.80
2018-12-08T03:17:32.659Z,5.80
2018-12-08T03:20:00.926Z,5.80
2018-12-08T03:22:29.198Z,5.80
2018-12-08T03:24:57.555Z,5.80
2018-12-08T03:27:25.848Z,5.80
2018-12-08T03:29:54.024Z,5.80
2018-12-08T03:32:22.274Z,5.70
2018-12-08T03:34:50.603Z,5.70
2018-12-08T03:37:18.827Z,5.70
2018-12-08T03:39:47.000Z,5.80
2018-12-08T03:42:15.187Z,5.70
2018-12-08T03:44:43.435Z,5.70
2018-12-08T03:47:11.631Z,5.70
2018-12-08T03:49:39.804Z,5.70
2018-12-08T03:52:08.079Z,5.70
2018-12-08T03:54:36.259Z,5.70
2018-12-08T03:57:04.507Z,5.70
2018-12-08T03:59:32.681Z,5.70
2018-12-08T04:02:00.831Z,5.70
2018-12-08T04:04:29.020Z,5.80
2018-12-08T04:06:57.227Z,5.90
2018-12-08T04:09:25.472Z,5.90
2018-12-08T04:11:53.610Z,5.80
2018-12-08T04:14:21.750Z,5.90
2018-12-08T04:16:49.948Z,5.90
2018-12-08T04:19:18.213Z,5.90
2018-12-08T04:21:46.388Z,5.90
2018-12-08T04:24:14.568Z,5.90
2018-12-08T04:26:42.739Z,5.80
2018-12-08T04:29:10.976Z,5.80
2018-12-08T04:31:39.183Z,5.80
2018-12-08T04:34:07.327Z,5.80
2018-12-08T04:36:35.509Z,5.70
2018-12-08T04:39:07.401Z,5.70
2018-12-08T04:41:35.567Z,5.70
2018-12-08T04:44:03.951Z,5.60
2018-12-08T04:46:32.200Z,5.60
2018-12-08T04:49:00.372Z,5.60
2018-12-08T04:51:28.578Z,5.50
2018-12-08T04:53:56.715Z,5.50
2018-12-08T04:56:25.846Z,5.50
2018-12-08T04:58:53.985Z,5.50
2018-12-08T05:01:22.135Z,5.40
2018-12-08T05:03:50.279Z,5.40
2018-12-08T05:06:18.559Z,5.40
2018-12-08T05:08:46.735Z,5.30
2018-12-08T05:11:14.916Z,5.30
2018-12-08T05:13:43.204Z,5.30
2018-12-08T05:16:11.351Z,5.30
2018-12-08T05:18:39.555Z,5.30
2018-12-08T05:21:07.799Z,5.40
2018-12-08T05:23:36.032Z,5.40
2018-12-08T05:26:04.391Z,5.40
2018-12-08T05:28:32.527Z,5.40
2018-12-08T05:31:00.702Z,5.40
2018-12-08T05:33:28.872Z,5.30
2018-12-08T05:35:57.118Z,5.30
2018-12-08T05:38:25.350Z,5.30
2018-12-08T05:40:53.529Z,5.30
2018-12-08T05:43:21.751Z,5.30
2018-12-08T05:45:49.921Z,5.30
2018-12-08T05:48:18.048Z,5.20
2018-12-08T05:50:46.361Z,5.20
2018-12-08T05:53:14.563Z,5.30
2018-12-08T05:55:42.739Z,5.30
2018-12-08T05:58:10.902Z,5.30
2018-12-08T06:00:39.171Z,5.30
2018-12-08T06:03:07.343Z,5.30
2018-12-08T06:05:35.497Z,5.40
2018-12-08T06:08:03.749Z,5.40
2018-12-08T06:10:31.968Z,5.50
2018-12-08T06:13:00.128Z,5.60
2018-12-08T06:15:28.319Z,5.70
2018-12-08T06:17:56.548Z,5.70
2018-12-08T06:20:24.684Z,5.80
2018-12-08T06:22:52.844Z,5.80
2018-12-08T06:25:27.407Z,5.80
2018-12-08T06:28:03.128Z,5.90
2018-12-08T06:30:31.396Z,5.90
2018-12-08T06:32:59.620Z,5.90
2018-12-08T06:35:27.836Z,5.90
2018-12-08T06:37:56.008Z,5.90
2018-12-08T06:40:29.193Z,5.90
2018-12-08T06:42:54.348Z,5.90
2018-12-08T06:45:22.602Z,5.80
2018-12-08T06:47:50.791Z,5.90
2018-12-08T06:50:19.040Z,5.80
2018-12-08T06:52:47.259Z,5.80
2018-12-08T06:55:15.520Z,5.80
2018-12-08T06:57:43.692Z,5.80
2018-12-08T07:00:11.919Z,5.70
2018-12-08T07:02:40.065Z,5.60
2018-12-08T07:05:08.328Z,5.60
2018-12-08T07:07:36.491Z,5.50
2018-12-08T07:10:04.815Z,5.50
2018-12-08T07:12:33.003Z,5.50
2018-12-08T07:15:01.186Z,5.50
2018-12-08T07:17:29.304Z,5.50
2018-12-08T07:19:57.567Z,5.60
2018-12-08T07:22:25.691Z,5.60
2018-12-08T07:24:53.908Z,5.70
2018-12-08T07:27:22.187Z,5.80
2018-12-08T07:29:50.314Z,5.90
2018-12-08T07:32:18.645Z,5.90
2018-12-08T07:34:46.818Z,5.90
2018-12-08T07:37:14.983Z,6.00
2018-12-08T07:39:43.215Z,6.00
2018-12-08T07:42:11.480Z,6.10
2018-12-08T07:44:39.708Z,6.10
2018-12-08T07:47:07.859Z,6.20
2018-12-08T07:49:36.014Z,6.20
2018-12-08T07:52:05.260Z,6.20
2018-12-08T07:54:33.463Z,6.20
2018-12-08T07:57:01.739Z,6.20
2018-12-08T07:59:29.894Z,6.20
2018-12-08T08:01:58.016Z,6.30
2018-12-08T08:04:26.249Z,6.30
2018-12-08T08:06:54.574Z,6.30
2018-12-08T08:09:22.695Z,6.30
2018-12-08T08:11:50.955Z,6.40
2018-12-08T08:14:19.121Z,6.50
2018-12-08T08:16:47.372Z,6.50
2018-12-08T08:19:15.522Z,6.60
2018-12-08T08:21:43.651Z,6.60
2018-12-08T08:24:11.789Z,6.70
2018-12-08T08:26:39.959Z,6.70
2018-12-08T08:29:08.124Z,6.70
2018-12-08T08:31:36.268Z,6.70
2018-12-08T08:34:04.547Z,6.70
2018-12-08T08:36:32.794Z,6.70
2018-12-08T08:39:00.956Z,6.70
2018-12-08T08:41:29.148Z,6.70
2018-12-08T08:43:57.319Z,6.70
2018-12-08T08:46:25.474Z,6.70
2018-12-08T08:48:53.725Z,6.70
2018-12-08T08:51:21.931Z,6.70
2018-12-08T08:53:50.076Z,6.70
2018-12-08T08:56:18.223Z,6.80
2018-12-08T08:58:46.367Z,6.90
2018-12-08T09:01:14.582Z,6.90
2018-12-08T09:03:42.743Z,7.10
2018-12-08T09:06:10.912Z,7.20
2018-12-08T09:11:08.107Z,7.00
2018-12-08T09:13:36.299Z,7.00
2018-12-08T09:16:04.558Z,6.90
2018-12-08T09:18:32.879Z,6.70
2018-12-08T09:21:01.068Z,7.10
2018-12-08T09:23:29.228Z,7.00
2018-12-08T09:25:57.464Z,7.00
2018-12-08T09:30:55.682Z,7.00
2018-12-08T09:45:46.968Z,7.00
2018-12-08T09:48:15.133Z,7.50
2018-12-08T09:50:43.267Z,7.00
2018-12-08T09:53:15.318Z,7.20
2018-12-08T09:55:43.639Z,7.10
2018-12-08T09:58:11.809Z,7.20
2018-12-08T10:00:40.355Z,7.20
2018-12-08T10:03:08.604Z,7.30
2018-12-08T10:05:36.782Z,7.30
2018-12-08T10:08:05.065Z,7.40
2018-12-08T10:10:33.208Z,7.50
2018-12-08T10:13:01.428Z,7.60
2018-12-08T10:15:29.595Z,7.50
2018-12-08T10:17:57.750Z,7.60
2018-12-08T10:20:26.051Z,7.50
2018-12-08T10:22:54.224Z,7.70
2018-12-08T10:25:22.371Z,7.60
2018-12-08T10:27:50.618Z,7.60
2018-12-08T10:30:18.760Z,7.70
2018-12-08T10:32:46.913Z,7.60
2018-12-08T10:35:15.108Z,7.70
2018-12-08T10:37:43.267Z,7.70
2018-12-08T10:40:11.569Z,7.70
2018-12-08T10:42:39.827Z,8.00
2018-12-08T10:45:09.076Z,8.30
2018-12-08T10:47:37.436Z,8.10
2018-12-08T10:50:08.784Z,8.00
2018-12-08T10:52:37.142Z,7.90
2018-12-08T10:55:06.172Z,7.90
2018-12-08T10:57:34.364Z,7.80
2018-12-08T11:00:02.728Z,7.80
2018-12-08T11:02:34.764Z,7.70
2018-12-08T11:05:02.998Z,7.60
2018-12-08T11:07:31.136Z,7.60
2018-12-08T11:09:59.355Z,7.50
2018-12-08T11:12:27.516Z,7.50
2018-12-08T11:15:00.615Z,7.40
2018-12-08T11:17:25.801Z,7.40
2018-12-08T11:19:54.028Z,7.50
2018-12-08T11:22:22.175Z,7.50
2018-12-08T11:24:50.331Z,7.70
2018-12-08T11:27:18.510Z,7.80
2018-12-08T11:29:46.757Z,7.70
2018-12-08T11:32:15.205Z,7.60
2018-12-08T11:34:44.269Z,8.00
2018-12-08T11:37:12.598Z,8.70
2018-12-08T11:39:40.933Z,9.30
2018-12-08T11:44:59.376Z,11.70
2018-12-08T11:47:27.535Z,12.00
2018-12-08T11:49:55.698Z,11.10
2018-12-08T11:52:24.116Z,10.70
2018-12-08T11:54:52.335Z,10.30
2018-12-08T11:57:20.479Z,9.60
2018-12-08T11:59:48.639Z,8.90
2018-12-08T12:02:16.936Z,8.80
2018-12-08T12:04:45.303Z,8.70
2018-12-08T12:07:13.528Z,8.60
2018-12-08T12:09:41.768Z,8.80
2018-12-08T12:12:09.986Z,8.70
2018-12-08T12:14:47.440Z,8.80
2018-12-08T12:17:15.705Z,9.30
2018-12-08T12:19:43.936Z,9.70
2018-12-08T12:22:12.267Z,9.60
2018-12-08T12:24:40.535Z,10.10
2018-12-08T12:27:08.799Z,10.00
2018-12-08T12:29:37.017Z,9.60
2018-12-08T12:32:05.315Z,9.20
2018-12-08T12:34:33.478Z,9.00
2018-12-08T12:37:01.711Z,8.80
2018-12-08T12:39:29.834Z,8.90
2018-12-08T12:41:58.063Z,9.10
2018-12-08T12:44:26.205Z,8.90
2018-12-08T12:46:54.527Z,8.80
2018-12-08T12:49:22.730Z,8.40
2018-12-08T12:51:51.045Z,8.30
2018-12-08T12:54:19.243Z,8.20
2018-12-08T12:56:47.428Z,8.10
2018-12-08T12:59:15.587Z,8.00
2018-12-08T13:01:43.900Z,7.90
2018-12-08T13:04:12.094Z,7.80
2018-12-08T13:06:40.325Z,7.80
2018-12-08T13:09:08.596Z,7.70
2018-12-08T13:11:36.764Z,7.60
2018-12-08T13:36:36.872Z,7.20
2018-12-08T13:39:05.261Z,7.00
2018-12-08T13:44:04.447Z,6.80
2018-12-08T13:46:32.616Z,7.30
2018-12-08T13:49:02.856Z,7.40
2018-12-08T13:51:31.032Z,7.40
2018-12-08T13:53:59.187Z,7.60
2018-12-08T13:56:27.346Z,7.40
2018-12-08T13:58:55.560Z,7.70
2018-12-08T14:01:23.701Z,7.00
2018-12-08T14:06:22.836Z,8.60
2018-12-08T14:11:19.616Z,7.40
2018-12-08T14:16:16.339Z,7.60
2018-12-08T14:26:09.247Z,7.50
2018-12-08T14:28:37.579Z,7.60
2018-12-08T14:31:06.053Z,7.30
2018-12-08T14:43:29.008Z,7.70
2018-12-08T14:48:25.583Z,7.60
2018-12-08T14:50:53.762Z,7.60
2018-12-08T15:20:40.040Z,7.60
2018-12-08T15:30:33.028Z,7.40
2018-12-08T15:33:01.243Z,7.60
2018-12-08T15:40:27.485Z,7.60
2018-12-08T15:42:55.632Z,7.60
2018-12-08T15:45:23.792Z,7.80
2018-12-08T15:50:20.304Z,7.50
2018-12-08T15:52:48.589Z,7.60
2018-12-08T15:55:16.950Z,7.50
2018-12-08T15:57:45.348Z,7.50
2018-12-08T16:00:14.009Z,7.70
2018-12-08T16:02:42.240Z,7.40
2018-12-08T16:05:10.557Z,7.60
2018-12-08T16:07:38.810Z,7.60
2018-12-08T16:10:08.100Z,8.00
2018-12-08T16:12:36.408Z,7.70
2018-12-08T16:15:05.371Z,7.60
2018-12-08T16:17:33.639Z,7.70
2018-12-08T16:22:30.613Z,7.70
2018-12-08T16:27:26.792Z,7.80
2018-12-08T16:29:54.932Z,7.80
2018-12-08T16:32:23.184Z,7.80
2018-12-08T16:37:26.051Z,7.80
2018-12-08T16:39:54.406Z,7.80
2018-12-08T16:42:22.579Z,7.80
2018-12-08T16:47:18.853Z,7.80
2018-12-08T16:52:15.652Z,7.60
2018-12-08T16:54:43.965Z,7.70
2018-12-08T16:57:12.188Z,7.70
2018-12-08T16:59:40.379Z,7.70
2018-12-08T17:02:08.640Z,7.70
2018-12-08T17:04:36.877Z,7.70
2018-12-08T17:07:05.144Z,7.50
2018-12-08T17:09:33.368Z,7.80
2018-12-08T17:12:01.703Z,7.70
2018-12-08T17:14:29.915Z,7.60
2018-12-08T17:19:26.105Z,7.70
2018-12-08T17:21:54.245Z,7.70
2018-12-08T17:24:22.463Z,7.50
2018-12-08T17:26:50.624Z,7.50
2018-12-08T17:29:18.795Z,7.50
2018-12-08T17:31:47.063Z,7.70
2018-12-08T17:34:15.294Z,7.60
2018-12-08T17:36:43.526Z,7.80
2018-12-08T17:39:11.804Z,7.70
2018-12-08T17:41:40.086Z,7.60
2018-12-08T17:44:08.725Z,7.70
2018-12-08T17:46:37.152Z,7.60
2018-12-08T17:49:05.583Z,7.70
2018-12-08T17:51:33.821Z,6.80
2018-12-08T17:54:03.259Z,7.90
2018-12-08T17:56:31.577Z,7.70
2018-12-08T17:58:59.711Z,8.10
2018-12-08T18:01:27.936Z,7.90
2018-12-08T18:03:56.189Z,7.80
2018-12-08T18:06:24.503Z,7.60
2018-12-08T18:08:52.672Z,7.80
2018-12-08T18:11:20.839Z,7.70
2018-12-08T18:13:49.175Z,7.80
2018-12-08T18:16:17.478Z,7.80
2018-12-08T18:18:45.852Z,7.80
2018-12-08T18:21:14.336Z,7.70
2018-12-08T18:23:42.733Z,7.80
2018-12-08T18:26:10.888Z,7.70
2018-12-08T18:28:39.051Z,7.60
2018-12-08T18:31:07.243Z,7.80
2018-12-08T18:33:35.423Z,7.70
2018-12-08T18:36:03.697Z,7.80
2018-12-08T18:38:31.942Z,7.70
2018-12-08T18:41:00.143Z,7.70
2018-12-08T18:43:28.321Z,7.80
2018-12-08T18:45:56.587Z,7.80
2018-12-08T18:48:24.755Z,7.50
2018-12-08T18:50:53.019Z,7.70
2018-12-08T18:53:21.160Z,7.60
2018-12-08T19:05:44.890Z,7.90
2018-12-08T19:13:10.620Z,7.90
2018-12-08T19:15:38.990Z,8.00
2018-12-08T19:18:07.217Z,7.90
2018-12-08T19:25:32.197Z,7.70
2018-12-08T19:28:00.336Z,7.70
2018-12-08T19:30:28.503Z,7.60
2018-12-08T19:32:56.817Z,7.60
2018-12-08T19:35:24.980Z,7.70
2018-12-08T19:37:53.145Z,7.70
2018-12-08T19:40:21.434Z,7.60
2018-12-08T19:42:49.699Z,7.60
2018-12-08T19:45:17.968Z,7.70
2018-12-08T19:47:46.126Z,7.70
2018-12-08T19:50:14.392Z,7.80
2018-12-08T19:52:42.943Z,7.80
2018-12-08T19:55:11.164Z,7.90
2018-12-08T19:57:39.318Z,7.90
2018-12-08T20:00:09.597Z,8.10
2018-12-08T20:02:37.967Z,8.10
2018-12-08T20:05:06.353Z,8.00
2018-12-08T20:07:34.520Z,8.10
2018-12-08T20:10:02.811Z,8.10
2018-12-08T20:12:31.000Z,8.20
2018-12-08T20:14:59.224Z,8.20
2018-12-08T20:22:23.602Z,8.20
2018-12-08T20:24:51.910Z,8.20
2018-12-08T20:27:20.076Z,8.10
2018-12-08T20:29:48.340Z,8.10
2018-12-08T20:32:16.515Z,8.00
2018-12-08T20:34:44.692Z,8.00
2018-12-08T20:37:12.956Z,7.90
2018-12-08T20:39:41.740Z,7.80
2018-12-08T20:42:10.036Z,7.80
2018-12-08T20:44:38.373Z,7.80
2018-12-08T20:47:06.709Z,7.80
2018-12-08T20:49:34.925Z,7.80
2018-12-08T20:54:31.470Z,7.80
2018-12-08T20:56:59.641Z,7.80
2018-12-08T20:59:27.838Z,7.80
2018-12-08T21:01:56.390Z,7.80
2018-12-08T21:04:24.651Z,7.90
2018-12-08T21:06:52.889Z,7.90
2018-12-08T21:09:21.207Z,7.90
2018-12-08T21:11:49.468Z,8.00
2018-12-08T21:14:17.677Z,8.00
2018-12-08T21:16:45.907Z,8.00
2018-12-08T21:19:14.344Z,8.10
2018-12-08T21:21:42.695Z,8.10
2018-12-08T21:24:11.036Z,8.10
2018-12-08T21:26:39.180Z,8.10
2018-12-08T21:29:07.653Z,8.10
2018-12-08T21:31:35.911Z,8.20
2018-12-08T21:34:04.439Z,8.20
2018-12-08T21:36:32.558Z,8.20
2018-12-08T21:39:01.028Z,8.30
2018-12-08T21:41:29.205Z,8.30
2018-12-08T21:43:57.494Z,8.40
2018-12-08T21:46:25.748Z,8.40
2018-12-08T21:48:54.251Z,8.40
2018-12-08T21:51:22.492Z,8.40
2018-12-08T21:53:50.964Z,8.50
2018-12-08T21:56:19.387Z,8.50
2018-12-08T21:58:47.582Z,8.50
2018-12-08T22:01:15.836Z,8.50
2018-12-08T22:03:44.011Z,8.60
2018-12-08T22:06:12.394Z,8.60
2018-12-08T22:08:40.585Z,8.60
2018-12-08T22:11:08.759Z,8.60
2018-12-08T22:13:36.951Z,8.60
2018-12-08T22:16:05.085Z,8.60
2018-12-08T22:18:33.235Z,8.60
2018-12-08T22:21:01.519Z,8.60
2018-12-08T22:23:29.703Z,8.50
2018-12-08T22:25:57.908Z,8.50
2018-12-08T22:28:26.024Z,8.50
2018-12-08T22:30:54.227Z,8.50
2018-12-08T22:33:22.391Z,8.50
2018-12-08T22:35:50.670Z,8.50
2018-12-08T22:38:18.831Z,8.50
2018-12-08T22:40:47.072Z,8.50
2018-12-08T22:43:15.281Z,8.50
2018-12-08T22:45:43.497Z,8.50
2018-12-08T22:48:11.861Z,8.60
2018-12-08T22:50:40.009Z,8.60
2018-12-08T22:53:08.396Z,8.60
2018-12-08T22:55:36.736Z,8.60
2018-12-08T22:58:05.027Z,8.70
2018-12-08T23:00:41.308Z,8.80
2018-12-08T23:03:09.726Z,9.00
2018-12-08T23:05:38.053Z,9.10
2018-12-08T23:08:06.397Z,9.20
2018-12-08T23:10:35.015Z,9.20
2018-12-08T23:13:03.263Z,9.20
2018-12-08T23:15:31.523Z,9.10
2018-12-08T23:17:59.851Z,9.00
2018-12-08T23:20:28.076Z,9.00
2018-12-08T23:22:56.302Z,9.00
2018-12-08T23:25:24.555Z,9.00
2018-12-08T23:27:52.729Z,9.10
2018-12-08T23:30:20.976Z,9.10
2018-12-08T23:32:49.203Z,9.10
2018-12-08T23:35:17.563Z,9.10
2018-12-08T23:37:45.833Z,9.10
2018-12-08T23:40:14.087Z,9.20
2018-12-08T23:42:42.834Z,9.20
2018-12-08T23:45:11.231Z,9.20
2018-12-08T23:47:39.419Z,9.20
2018-12-08T23:50:09.075Z,9.20
2018-12-08T23:52:37.380Z,9.20
2018-12-08T23:55:06.665Z,9.30
2018-12-08T23:57:34.951Z,9.30
